sensor_id;sensor_type;location;lat;lon;timestamp;temperature;humidity
790;DHT22;378;48.844;9.156;2023-05-07T00:00:22;14.40;99.90
790;DHT22;378;48.844;9.156;2023-05-07T00:02:51;14.40;99.90
790;DHT22;378;48.844;9.156;2023-05-07T00:05:19;14.40;99.90
790;DHT22;378;48.844;9.156;2023-05-07T00:07:46;14.30;99.90
790;DHT22;378;48.844;9.156;2023-05-07T00:10:13;14.30;99.90
790;DHT22;378;48.844;9.156;2023-05-07T00:12:40;14.30;99.90
790;DHT22;378;48.844;9.156;2023-05-07T00:15:08;14.30;99.90
790;DHT22;378;48.844;9.156;2023-05-07T00:17:35;14.30;99.90
790;DHT22;378;48.844;9.156;2023-05-07T00:20:04;14.20;99.90
790;DHT22;378;48.844;9.156;2023-05-07T00:22:31;14.20;99.90
790;DHT22;378;48.844;9.156;2023-05-07T00:24:58;14.20;99.90
790;DHT22;378;48.844;9.156;2023-05-07T00:27:25;14.20;99.90
790;DHT22;378;48.844;9.156;2023-05-07T00:29:52;14.10;99.90
790;DHT22;378;48.844;9.156;2023-05-07T00:32:19;14.10;99.90
790;DHT22;378;48.844;9.156;2023-05-07T00:34:46;14.00;99.90
790;DHT22;378;48.844;9.156;2023-05-07T00:37:14;14.00;99.90
790;DHT22;378;48.844;9.156;2023-05-07T00:39:41;14.00;99.90
790;DHT22;378;48.844;9.156;2023-05-07T00:42:08;13.90;99.90
790;DHT22;378;48.844;9.156;2023-05-07T00:44:34;13.90;99.90
790;DHT22;378;48.844;9.156;2023-05-07T00:47:03;13.90;99.90
790;DHT22;378;48.844;9.156;2023-05-07T00:49:37;13.90;99.90
790;DHT22;378;48.844;9.156;2023-05-07T00:52:06;13.90;99.90
790;DHT22;378;48.844;9.156;2023-05-07T00:54:35;13.90;99.90
790;DHT22;378;48.844;9.156;2023-05-07T00:57:02;13.80;99.90
790;DHT22;378;48.844;9.156;2023-05-07T00:59:30;13.90;99.90
790;DHT22;378;48.844;9.156;2023-05-07T01:01:57;13.80;99.90
790;DHT22;378;48.844;9.156;2023-05-07T01:04:25;13.80;99.90
790;DHT22;378;48.844;9.156;2023-05-07T01:06:53;13.80;99.90
790;DHT22;378;48.844;9.156;2023-05-07T01:09:21;13.70;99.90
790;DHT22;378;48.844;9.156;2023-05-07T01:11:50;13.70;99.90
790;DHT22;378;48.844;9.156;2023-05-07T01:14:18;13.70;99.90
790;DHT22;378;48.844;9.156;2023-05-07T01:16:46;13.70;99.90
790;DHT22;378;48.844;9.156;2023-05-07T01:19:14;13.70;99.90
790;DHT22;378;48.844;9.156;2023-05-07T01:21:46;13.60;99.90
790;DHT22;378;48.844;9.156;2023-05-07T01:24:15;13.60;99.90
790;DHT22;378;48.844;9.156;2023-05-07T01:26:42;13.50;99.90
790;DHT22;378;48.844;9.156;2023-05-07T01:29:09;13.50;99.90
790;DHT22;378;48.844;9.156;2023-05-07T01:31:37;13.50;99.90
790;DHT22;378;48.844;9.156;2023-05-07T01:34:07;13.50;99.90
790;DHT22;378;48.844;9.156;2023-05-07T01:36:35;13.50;99.90
790;DHT22;378;48.844;9.156;2023-05-07T01:39:03;13.50;99.90
790;DHT22;378;48.844;9.156;2023-05-07T01:41:32;13.50;99.90
790;DHT22;378;48.844;9.156;2023-05-07T01:43:59;13.50;99.90
790;DHT22;378;48.844;9.156;2023-05-07T01:46:26;13.50;99.90
790;DHT22;378;48.844;9.156;2023-05-07T01:48:54;13.40;99.90
790;DHT22;378;48.844;9.156;2023-05-07T01:51:21;13.50;99.90
790;DHT22;378;48.844;9.156;2023-05-07T01:53:48;13.40;99.90
790;DHT22;378;48.844;9.156;2023-05-07T01:56:16;13.40;99.90
790;DHT22;378;48.844;9.156;2023-05-07T01:58:45;13.40;99.90
790;DHT22;378;48.844;9.156;2023-05-07T02:01:13;13.40;99.90
790;DHT22;378;48.844;9.156;2023-05-07T02:03:39;13.40;99.90
790;DHT22;378;48.844;9.156;2023-05-07T02:06:06;13.50;99.90
790;DHT22;378;48.844;9.156;2023-05-07T02:08:33;13.50;99.90
790;DHT22;378;48.844;9.156;2023-05-07T02:11:00;13.50;99.90
790;DHT22;378;48.844;9.156;2023-05-07T02:13:31;13.50;99.90
790;DHT22;378;48.844;9.156;2023-05-07T02:15:59;13.50;99.90
790;DHT22;378;48.844;9.156;2023-05-07T02:18:26;13.50;99.90
790;DHT22;378;48.844;9.156;2023-05-07T02:20:53;13.60;99.90
790;DHT22;378;48.844;9.156;2023-05-07T02:23:20;13.50;99.90
790;DHT22;378;48.844;9.156;2023-05-07T02:25:47;13.40;99.90
790;DHT22;378;48.844;9.156;2023-05-07T02:28:14;13.40;99.90
790;DHT22;378;48.844;9.156;2023-05-07T02:30:40;13.40;99.90
790;DHT22;378;48.844;9.156;2023-05-07T02:33:09;13.30;99.90
790;DHT22;378;48.844;9.156;2023-05-07T02:35:37;13.30;99.90
790;DHT22;378;48.844;9.156;2023-05-07T02:38:04;13.20;99.90
790;DHT22;378;48.844;9.156;2023-05-07T02:40:31;13.20;99.90
790;DHT22;378;48.844;9.156;2023-05-07T02:42:59;13.10;99.90
790;DHT22;378;48.844;9.156;2023-05-07T02:45:26;13.10;99.90
790;DHT22;378;48.844;9.156;2023-05-07T02:47:52;13.00;99.90
790;DHT22;378;48.844;9.156;2023-05-07T02:50:21;13.00;99.90
790;DHT22;378;48.844;9.156;2023-05-07T02:52:48;13.00;99.90
790;DHT22;378;48.844;9.156;2023-05-07T02:55:15;13.00;99.90
790;DHT22;378;48.844;9.156;2023-05-07T02:57:42;12.90;99.90
790;DHT22;378;48.844;9.156;2023-05-07T03:00:14;12.80;99.90
790;DHT22;378;48.844;9.156;2023-05-07T03:02:41;12.80;99.90
790;DHT22;378;48.844;9.156;2023-05-07T03:05:08;12.70;99.90
790;DHT22;378;48.844;9.156;2023-05-07T03:07:36;12.70;99.90
790;DHT22;378;48.844;9.156;2023-05-07T03:10:04;12.60;99.90
790;DHT22;378;48.844;9.156;2023-05-07T03:12:30;12.60;99.90
790;DHT22;378;48.844;9.156;2023-05-07T03:14:57;12.60;99.90
790;DHT22;378;48.844;9.156;2023-05-07T03:17:24;12.50;99.90
790;DHT22;378;48.844;9.156;2023-05-07T03:19:51;12.50;99.90
790;DHT22;378;48.844;9.156;2023-05-07T03:22:18;12.50;99.90
790;DHT22;378;48.844;9.156;2023-05-07T03:24:46;12.50;99.90
790;DHT22;378;48.844;9.156;2023-05-07T03:27:13;12.40;99.90
790;DHT22;378;48.844;9.156;2023-05-07T03:29:39;12.40;99.90
790;DHT22;378;48.844;9.156;2023-05-07T03:32:06;12.30;99.90
790;DHT22;378;48.844;9.156;2023-05-07T03:34:33;12.30;99.90
790;DHT22;378;48.844;9.156;2023-05-07T03:37:00;12.30;99.90
790;DHT22;378;48.844;9.156;2023-05-07T03:39:27;12.30;99.90
790;DHT22;378;48.844;9.156;2023-05-07T03:41:55;12.30;99.90
790;DHT22;378;48.844;9.156;2023-05-07T03:44:22;12.20;99.90
790;DHT22;378;48.844;9.156;2023-05-07T03:46:48;12.20;99.90
790;DHT22;378;48.844;9.156;2023-05-07T03:49:15;12.10;99.90
790;DHT22;378;48.844;9.156;2023-05-07T03:51:42;12.10;99.90
790;DHT22;378;48.844;9.156;2023-05-07T03:54:09;12.20;99.90
790;DHT22;378;48.844;9.156;2023-05-07T03:56:36;12.10;99.90
790;DHT22;378;48.844;9.156;2023-05-07T03:59:04;12.10;99.90
790;DHT22;378;48.844;9.156;2023-05-07T04:01:31;12.10;99.90
790;DHT22;378;48.844;9.156;2023-05-07T04:03:58;12.10;99.90
790;DHT22;378;48.844;9.156;2023-05-07T04:06:24;12.10;99.90
790;DHT22;378;48.844;9.156;2023-05-07T04:08:51;12.10;99.90
790;DHT22;378;48.844;9.156;2023-05-07T04:11:18;12.10;99.90
790;DHT22;378;48.844;9.156;2023-05-07T04:13:45;12.20;99.90
790;DHT22;378;48.844;9.156;2023-05-07T04:16:14;12.20;99.90
790;DHT22;378;48.844;9.156;2023-05-07T04:18:41;12.20;99.90
790;DHT22;378;48.844;9.156;2023-05-07T04:21:14;12.20;99.90
790;DHT22;378;48.844;9.156;2023-05-07T04:23:41;12.30;99.90
790;DHT22;378;48.844;9.156;2023-05-07T04:26:08;12.40;99.90
790;DHT22;378;48.844;9.156;2023-05-07T04:28:35;12.40;99.90
790;DHT22;378;48.844;9.156;2023-05-07T04:31:02;12.40;99.90
790;DHT22;378;48.844;9.156;2023-05-07T04:33:30;12.50;99.90
790;DHT22;378;48.844;9.156;2023-05-07T04:35:57;12.50;99.90
790;DHT22;378;48.844;9.156;2023-05-07T04:38:28;12.50;99.90
790;DHT22;378;48.844;9.156;2023-05-07T04:40:55;12.60;99.90
790;DHT22;378;48.844;9.156;2023-05-07T04:43:22;12.70;99.90
790;DHT22;378;48.844;9.156;2023-05-07T04:45:50;12.80;99.90
790;DHT22;378;48.844;9.156;2023-05-07T04:48:17;12.90;99.90
790;DHT22;378;48.844;9.156;2023-05-07T04:50:47;13.20;99.90
790;DHT22;378;48.844;9.156;2023-05-07T04:53:14;13.50;99.90
790;DHT22;378;48.844;9.156;2023-05-07T04:55:41;13.60;99.90
790;DHT22;378;48.844;9.156;2023-05-07T04:58:08;13.80;99.90
790;DHT22;378;48.844;9.156;2023-05-07T05:00:35;14.10;99.90
790;DHT22;378;48.844;9.156;2023-05-07T05:03:02;14.00;99.90
790;DHT22;378;48.844;9.156;2023-05-07T05:05:28;14.00;99.90
790;DHT22;378;48.844;9.156;2023-05-07T05:07:57;14.00;99.90
790;DHT22;378;48.844;9.156;2023-05-07T05:10:23;13.90;99.90
790;DHT22;378;48.844;9.156;2023-05-07T05:12:50;13.80;99.90
790;DHT22;378;48.844;9.156;2023-05-07T05:15:17;13.70;99.90
790;DHT22;378;48.844;9.156;2023-05-07T05:17:44;13.70;99.90
790;DHT22;378;48.844;9.156;2023-05-07T05:20:11;13.60;99.90
790;DHT22;378;48.844;9.156;2023-05-07T05:22:38;13.60;99.90
790;DHT22;378;48.844;9.156;2023-05-07T05:25:07;13.60;99.90
790;DHT22;378;48.844;9.156;2023-05-07T05:27:34;13.60;99.90
790;DHT22;378;48.844;9.156;2023-05-07T05:30:01;13.70;99.90
790;DHT22;378;48.844;9.156;2023-05-07T05:32:28;13.70;99.90
790;DHT22;378;48.844;9.156;2023-05-07T05:34:55;13.70;99.90
790;DHT22;378;48.844;9.156;2023-05-07T05:37:22;13.80;99.90
790;DHT22;378;48.844;9.156;2023-05-07T05:39:49;14.10;99.90
790;DHT22;378;48.844;9.156;2023-05-07T05:42:18;14.60;99.90
790;DHT22;378;48.844;9.156;2023-05-07T05:44:46;15.30;99.90
790;DHT22;378;48.844;9.156;2023-05-07T05:47:14;16.00;99.90
790;DHT22;378;48.844;9.156;2023-05-07T05:49:40;16.50;99.90
790;DHT22;378;48.844;9.156;2023-05-07T05:52:08;17.00;99.90
790;DHT22;378;48.844;9.156;2023-05-07T05:54:35;17.50;99.90
790;DHT22;378;48.844;9.156;2023-05-07T05:57:02;17.70;99.90
790;DHT22;378;48.844;9.156;2023-05-07T05:59:30;18.20;99.90
790;DHT22;378;48.844;9.156;2023-05-07T06:01:57;18.20;99.90
790;DHT22;378;48.844;9.156;2023-05-07T06:04:24;18.30;99.90
790;DHT22;378;48.844;9.156;2023-05-07T06:06:51;18.30;99.90
790;DHT22;378;48.844;9.156;2023-05-07T06:09:18;18.40;99.90
790;DHT22;378;48.844;9.156;2023-05-07T06:11:45;18.70;99.90
790;DHT22;378;48.844;9.156;2023-05-07T06:14:12;19.10;99.90
790;DHT22;378;48.844;9.156;2023-05-07T06:16:40;19.10;99.90
790;DHT22;378;48.844;9.156;2023-05-07T06:19:07;19.30;99.90
790;DHT22;378;48.844;9.156;2023-05-07T06:21:34;19.40;99.90
790;DHT22;378;48.844;9.156;2023-05-07T06:24:01;19.20;99.90
790;DHT22;378;48.844;9.156;2023-05-07T06:26:28;18.70;99.90
790;DHT22;378;48.844;9.156;2023-05-07T06:28:55;18.90;99.90
790;DHT22;378;48.844;9.156;2023-05-07T06:31:22;19.00;99.90
790;DHT22;378;48.844;9.156;2023-05-07T06:33:50;19.10;99.90
790;DHT22;378;48.844;9.156;2023-05-07T06:36:17;19.30;99.90
790;DHT22;378;48.844;9.156;2023-05-07T06:38:44;19.20;99.90
790;DHT22;378;48.844;9.156;2023-05-07T06:41:10;19.30;99.90
790;DHT22;378;48.844;9.156;2023-05-07T06:43:37;19.70;99.90
790;DHT22;378;48.844;9.156;2023-05-07T06:46:04;20.40;99.90
790;DHT22;378;48.844;9.156;2023-05-07T06:48:33;20.60;99.90
790;DHT22;378;48.844;9.156;2023-05-07T06:51:01;21.20;99.90
790;DHT22;378;48.844;9.156;2023-05-07T06:53:28;21.20;99.90
790;DHT22;378;48.844;9.156;2023-05-07T06:55:56;21.10;99.90
790;DHT22;378;48.844;9.156;2023-05-07T06:58:23;21.10;99.90
790;DHT22;378;48.844;9.156;2023-05-07T07:00:50;21.10;99.90
790;DHT22;378;48.844;9.156;2023-05-07T07:03:17;21.00;99.90
790;DHT22;378;48.844;9.156;2023-05-07T07:05:44;21.50;99.90
790;DHT22;378;48.844;9.156;2023-05-07T07:08:12;22.20;99.90
790;DHT22;378;48.844;9.156;2023-05-07T07:10:38;22.60;99.90
790;DHT22;378;48.844;9.156;2023-05-07T07:13:05;23.00;99.90
790;DHT22;378;48.844;9.156;2023-05-07T07:15:32;22.90;99.90
790;DHT22;378;48.844;9.156;2023-05-07T07:17:59;22.80;99.90
790;DHT22;378;48.844;9.156;2023-05-07T07:20:26;23.10;99.90
790;DHT22;378;48.844;9.156;2023-05-07T07:22:53;22.80;99.90
790;DHT22;378;48.844;9.156;2023-05-07T07:25:22;22.70;99.90
790;DHT22;378;48.844;9.156;2023-05-07T07:27:49;22.70;99.90
790;DHT22;378;48.844;9.156;2023-05-07T07:30:16;22.80;99.90
790;DHT22;378;48.844;9.156;2023-05-07T07:32:42;23.20;99.90
790;DHT22;378;48.844;9.156;2023-05-07T07:35:09;23.50;99.90
790;DHT22;378;48.844;9.156;2023-05-07T07:37:36;23.70;99.90
790;DHT22;378;48.844;9.156;2023-05-07T07:40:03;24.30;99.90
790;DHT22;378;48.844;9.156;2023-05-07T07:42:32;24.50;99.90
790;DHT22;378;48.844;9.156;2023-05-07T07:44:59;24.40;99.90
790;DHT22;378;48.844;9.156;2023-05-07T07:47:25;24.20;99.90
790;DHT22;378;48.844;9.156;2023-05-07T07:49:52;23.70;99.90
790;DHT22;378;48.844;9.156;2023-05-07T07:52:19;23.50;99.90
790;DHT22;378;48.844;9.156;2023-05-07T07:54:46;22.90;99.90
790;DHT22;378;48.844;9.156;2023-05-07T07:57:13;22.20;99.90
790;DHT22;378;48.844;9.156;2023-05-07T07:59:41;21.70;99.90
790;DHT22;378;48.844;9.156;2023-05-07T08:02:08;21.70;99.90
790;DHT22;378;48.844;9.156;2023-05-07T08:04:35;21.90;99.90
790;DHT22;378;48.844;9.156;2023-05-07T08:07:03;22.10;99.90
790;DHT22;378;48.844;9.156;2023-05-07T08:09:29;22.40;99.90
790;DHT22;378;48.844;9.156;2023-05-07T08:11:56;22.70;99.90
790;DHT22;378;48.844;9.156;2023-05-07T08:14:23;22.80;99.90
790;DHT22;378;48.844;9.156;2023-05-07T08:16:52;23.00;99.90
790;DHT22;378;48.844;9.156;2023-05-07T08:19:19;22.80;99.90
790;DHT22;378;48.844;9.156;2023-05-07T08:21:46;22.90;99.90
790;DHT22;378;48.844;9.156;2023-05-07T08:24:14;23.20;99.90
790;DHT22;378;48.844;9.156;2023-05-07T08:26:41;23.30;99.90
790;DHT22;378;48.844;9.156;2023-05-07T08:29:08;23.30;99.90
790;DHT22;378;48.844;9.156;2023-05-07T08:31:34;23.30;99.90
790;DHT22;378;48.844;9.156;2023-05-07T08:34:03;23.30;99.90
790;DHT22;378;48.844;9.156;2023-05-07T08:36:30;23.30;99.90
790;DHT22;378;48.844;9.156;2023-05-07T08:38:57;23.20;99.90
790;DHT22;378;48.844;9.156;2023-05-07T08:41:24;23.60;99.90
790;DHT22;378;48.844;9.156;2023-05-07T08:43:51;24.30;99.90
790;DHT22;378;48.844;9.156;2023-05-07T08:46:19;24.90;99.90
790;DHT22;378;48.844;9.156;2023-05-07T08:48:48;25.80;99.90
790;DHT22;378;48.844;9.156;2023-05-07T08:51:19;26.60;99.90
790;DHT22;378;48.844;9.156;2023-05-07T08:53:47;27.00;99.90
790;DHT22;378;48.844;9.156;2023-05-07T08:56:15;27.90;99.90
790;DHT22;378;48.844;9.156;2023-05-07T08:58:43;28.50;99.90
790;DHT22;378;48.844;9.156;2023-05-07T09:01:13;29.60;99.90
790;DHT22;378;48.844;9.156;2023-05-07T09:03:42;29.30;99.90
790;DHT22;378;48.844;9.156;2023-05-07T09:06:10;29.30;99.90
790;DHT22;378;48.844;9.156;2023-05-07T09:08:38;29.50;99.90
790;DHT22;378;48.844;9.156;2023-05-07T09:11:05;29.50;99.90
790;DHT22;378;48.844;9.156;2023-05-07T09:13:32;29.40;99.90
790;DHT22;378;48.844;9.156;2023-05-07T09:16:06;29.70;99.90
790;DHT22;378;48.844;9.156;2023-05-07T09:18:40;29.20;99.90
790;DHT22;378;48.844;9.156;2023-05-07T09:21:09;29.40;99.90
790;DHT22;378;48.844;9.156;2023-05-07T09:23:38;29.70;99.90
790;DHT22;378;48.844;9.156;2023-05-07T09:26:06;29.60;99.90
790;DHT22;378;48.844;9.156;2023-05-07T09:28:38;29.50;99.90
790;DHT22;378;48.844;9.156;2023-05-07T09:31:06;29.70;99.90
790;DHT22;378;48.844;9.156;2023-05-07T09:33:33;29.70;99.90
790;DHT22;378;48.844;9.156;2023-05-07T09:36:03;29.30;99.90
790;DHT22;378;48.844;9.156;2023-05-07T09:38:30;29.00;99.90
790;DHT22;378;48.844;9.156;2023-05-07T09:41:04;29.60;99.90
790;DHT22;378;48.844;9.156;2023-05-07T09:43:34;29.80;99.90
790;DHT22;378;48.844;9.156;2023-05-07T09:46:05;29.80;99.90
790;DHT22;378;48.844;9.156;2023-05-07T09:48:36;28.90;99.90
790;DHT22;378;48.844;9.156;2023-05-07T09:51:09;28.70;99.90
790;DHT22;378;48.844;9.156;2023-05-07T09:53:38;28.50;99.90
790;DHT22;378;48.844;9.156;2023-05-07T09:56:08;28.70;99.90
790;DHT22;378;48.844;9.156;2023-05-07T09:58:37;28.60;99.90
790;DHT22;378;48.844;9.156;2023-05-07T10:01:05;28.60;99.90
790;DHT22;378;48.844;9.156;2023-05-07T10:03:33;29.10;99.90
790;DHT22;378;48.844;9.156;2023-05-07T10:06:02;29.40;99.90
790;DHT22;378;48.844;9.156;2023-05-07T10:08:30;29.60;99.90
790;DHT22;378;48.844;9.156;2023-05-07T10:10:57;30.10;99.90
790;DHT22;378;48.844;9.156;2023-05-07T10:13:26;30.20;99.90
790;DHT22;378;48.844;9.156;2023-05-07T10:15:53;29.40;99.90
790;DHT22;378;48.844;9.156;2023-05-07T10:18:22;29.40;99.90
790;DHT22;378;48.844;9.156;2023-05-07T10:21:01;29.30;99.90
790;DHT22;378;48.844;9.156;2023-05-07T10:23:29;29.40;99.90
790;DHT22;378;48.844;9.156;2023-05-07T10:25:59;29.90;99.90
790;DHT22;378;48.844;9.156;2023-05-07T10:28:31;29.90;99.90
790;DHT22;378;48.844;9.156;2023-05-07T10:31:08;30.00;99.90
790;DHT22;378;48.844;9.156;2023-05-07T10:33:37;30.10;99.90
790;DHT22;378;48.844;9.156;2023-05-07T10:36:05;30.10;99.90
790;DHT22;378;48.844;9.156;2023-05-07T10:38:33;29.70;99.90
790;DHT22;378;48.844;9.156;2023-05-07T10:41:00;29.10;99.90
790;DHT22;378;48.844;9.156;2023-05-07T10:43:40;28.40;99.90
790;DHT22;378;48.844;9.156;2023-05-07T10:46:13;27.40;99.90
790;DHT22;378;48.844;9.156;2023-05-07T10:49:08;26.80;99.90
790;DHT22;378;48.844;9.156;2023-05-07T10:51:36;26.80;99.90
790;DHT22;378;48.844;9.156;2023-05-07T10:54:20;27.30;99.90
790;DHT22;378;48.844;9.156;2023-05-07T10:56:47;28.00;99.90
790;DHT22;378;48.844;9.156;2023-05-07T10:59:36;28.70;99.90
790;DHT22;378;48.844;9.156;2023-05-07T11:02:09;28.90;99.90
790;DHT22;378;48.844;9.156;2023-05-07T11:04:39;28.80;99.90
790;DHT22;378;48.844;9.156;2023-05-07T11:07:27;28.90;99.90
790;DHT22;378;48.844;9.156;2023-05-07T11:09:58;28.50;99.90
790;DHT22;378;48.844;9.156;2023-05-07T11:15:42;26.60;99.90
790;DHT22;378;48.844;9.156;2023-05-07T11:18:11;26.30;99.90
790;DHT22;378;48.844;9.156;2023-05-07T11:20:49;26.00;99.90
790;DHT22;378;48.844;9.156;2023-05-07T11:23:56;25.90;99.90
790;DHT22;378;48.844;9.156;2023-05-07T11:26:26;25.50;99.90
790;DHT22;378;48.844;9.156;2023-05-07T11:28:53;25.40;99.90
790;DHT22;378;48.844;9.156;2023-05-07T11:31:23;25.30;99.90
790;DHT22;378;48.844;9.156;2023-05-07T11:33:52;25.20;99.90
790;DHT22;378;48.844;9.156;2023-05-07T11:36:20;25.20;99.90
790;DHT22;378;48.844;9.156;2023-05-07T11:38:47;25.10;99.90
790;DHT22;378;48.844;9.156;2023-05-07T11:41:15;25.00;99.90
790;DHT22;378;48.844;9.156;2023-05-07T11:43:59;24.50;99.90
790;DHT22;378;48.844;9.156;2023-05-07T11:46:28;24.40;99.90
790;DHT22;378;48.844;9.156;2023-05-07T11:48:56;24.30;99.90
790;DHT22;378;48.844;9.156;2023-05-07T11:51:24;24.30;99.90
790;DHT22;378;48.844;9.156;2023-05-07T11:53:51;24.30;99.90
790;DHT22;378;48.844;9.156;2023-05-07T11:56:18;24.30;99.90
790;DHT22;378;48.844;9.156;2023-05-07T11:58:47;24.30;99.90
790;DHT22;378;48.844;9.156;2023-05-07T12:01:14;24.30;99.90
790;DHT22;378;48.844;9.156;2023-05-07T12:03:44;24.30;99.90
790;DHT22;378;48.844;9.156;2023-05-07T12:06:12;24.20;99.90
790;DHT22;378;48.844;9.156;2023-05-07T12:08:40;24.10;99.90
790;DHT22;378;48.844;9.156;2023-05-07T12:11:08;24.00;99.90
790;DHT22;378;48.844;9.156;2023-05-07T12:13:37;23.90;99.90
790;DHT22;378;48.844;9.156;2023-05-07T12:16:05;23.70;99.90
790;DHT22;378;48.844;9.156;2023-05-07T12:18:33;23.50;99.90
790;DHT22;378;48.844;9.156;2023-05-07T12:21:04;23.50;99.90
790;DHT22;378;48.844;9.156;2023-05-07T12:23:31;23.50;99.90
790;DHT22;378;48.844;9.156;2023-05-07T12:25:59;23.60;99.90
790;DHT22;378;48.844;9.156;2023-05-07T12:28:26;23.50;99.90
790;DHT22;378;48.844;9.156;2023-05-07T12:30:53;23.50;99.90
790;DHT22;378;48.844;9.156;2023-05-07T12:33:24;23.40;99.90
790;DHT22;378;48.844;9.156;2023-05-07T12:35:53;23.50;99.90
790;DHT22;378;48.844;9.156;2023-05-07T12:38:22;23.50;99.90
790;DHT22;378;48.844;9.156;2023-05-07T12:40:53;23.20;99.90
790;DHT22;378;48.844;9.156;2023-05-07T12:43:21;22.80;99.90
790;DHT22;378;48.844;9.156;2023-05-07T12:45:49;22.40;99.90
790;DHT22;378;48.844;9.156;2023-05-07T12:48:17;21.90;99.90
790;DHT22;378;48.844;9.156;2023-05-07T12:50:43;21.40;99.90
790;DHT22;378;48.844;9.156;2023-05-07T12:53:11;20.90;99.90
790;DHT22;378;48.844;9.156;2023-05-07T12:55:45;20.20;99.90
790;DHT22;378;48.844;9.156;2023-05-07T12:58:19;19.70;99.90
790;DHT22;378;48.844;9.156;2023-05-07T13:00:48;19.00;99.90
790;DHT22;378;48.844;9.156;2023-05-07T13:03:23;18.40;99.90
790;DHT22;378;48.844;9.156;2023-05-07T13:05:52;17.80;99.90
790;DHT22;378;48.844;9.156;2023-05-07T13:08:26;17.30;99.90
790;DHT22;378;48.844;9.156;2023-05-07T13:10:55;16.80;99.90
790;DHT22;378;48.844;9.156;2023-05-07T13:13:22;16.40;99.90
790;DHT22;378;48.844;9.156;2023-05-07T13:15:49;16.10;99.90
790;DHT22;378;48.844;9.156;2023-05-07T13:18:17;15.90;99.90
790;DHT22;378;48.844;9.156;2023-05-07T13:20:44;15.80;99.90
790;DHT22;378;48.844;9.156;2023-05-07T13:23:10;15.80;99.90
790;DHT22;378;48.844;9.156;2023-05-07T13:25:37;15.90;99.90
790;DHT22;378;48.844;9.156;2023-05-07T13:28:06;16.00;99.90
790;DHT22;378;48.844;9.156;2023-05-07T13:30:32;16.10;99.90
790;DHT22;378;48.844;9.156;2023-05-07T13:33:00;16.20;99.90
790;DHT22;378;48.844;9.156;2023-05-07T13:35:27;16.20;99.90
790;DHT22;378;48.844;9.156;2023-05-07T13:37:53;16.00;99.90
790;DHT22;378;48.844;9.156;2023-05-07T13:40:21;15.90;99.90
790;DHT22;378;48.844;9.156;2023-05-07T13:42:48;15.70;99.90
790;DHT22;378;48.844;9.156;2023-05-07T13:45:17;15.50;99.90
790;DHT22;378;48.844;9.156;2023-05-07T13:47:44;15.30;99.90
790;DHT22;378;48.844;9.156;2023-05-07T13:50:12;15.20;99.90
790;DHT22;378;48.844;9.156;2023-05-07T13:52:41;15.10;99.90
790;DHT22;378;48.844;9.156;2023-05-07T13:55:08;15.10;99.90
790;DHT22;378;48.844;9.156;2023-05-07T13:57:35;15.00;99.90
790;DHT22;378;48.844;9.156;2023-05-07T14:00:03;15.00;99.90
790;DHT22;378;48.844;9.156;2023-05-07T14:02:32;15.00;99.90
790;DHT22;378;48.844;9.156;2023-05-07T14:04:58;14.90;99.90
790;DHT22;378;48.844;9.156;2023-05-07T14:07:25;14.90;99.90
790;DHT22;378;48.844;9.156;2023-05-07T14:09:52;14.90;99.90
790;DHT22;378;48.844;9.156;2023-05-07T14:12:19;14.90;99.90
790;DHT22;378;48.844;9.156;2023-05-07T14:14:46;14.90;99.90
790;DHT22;378;48.844;9.156;2023-05-07T14:17:15;14.90;99.90
790;DHT22;378;48.844;9.156;2023-05-07T14:19:43;15.00;99.90
790;DHT22;378;48.844;9.156;2023-05-07T14:22:10;14.90;99.90
790;DHT22;378;48.844;9.156;2023-05-07T14:24:37;14.90;99.90
790;DHT22;378;48.844;9.156;2023-05-07T14:27:05;14.90;99.90
790;DHT22;378;48.844;9.156;2023-05-07T14:29:32;15.00;99.90
790;DHT22;378;48.844;9.156;2023-05-07T14:32:01;15.00;99.90
790;DHT22;378;48.844;9.156;2023-05-07T14:34:27;15.00;99.90
790;DHT22;378;48.844;9.156;2023-05-07T14:36:56;15.00;99.90
790;DHT22;378;48.844;9.156;2023-05-07T14:39:22;15.00;99.90
790;DHT22;378;48.844;9.156;2023-05-07T14:41:49;15.00;99.90
790;DHT22;378;48.844;9.156;2023-05-07T14:44:16;14.90;99.90
790;DHT22;378;48.844;9.156;2023-05-07T14:46:43;15.00;99.90
790;DHT22;378;48.844;9.156;2023-05-07T14:49:10;15.00;99.90
790;DHT22;378;48.844;9.156;2023-05-07T14:51:42;15.10;99.90
790;DHT22;378;48.844;9.156;2023-05-07T14:54:10;15.10;99.90
790;DHT22;378;48.844;9.156;2023-05-07T14:56:37;15.20;99.90
790;DHT22;378;48.844;9.156;2023-05-07T14:59:04;15.20;99.90
790;DHT22;378;48.844;9.156;2023-05-07T15:01:31;15.30;99.90
790;DHT22;378;48.844;9.156;2023-05-07T15:03:58;15.40;99.90
790;DHT22;378;48.844;9.156;2023-05-07T15:06:25;15.50;99.90
790;DHT22;378;48.844;9.156;2023-05-07T15:08:53;15.70;99.90
790;DHT22;378;48.844;9.156;2023-05-07T15:11:21;15.80;99.90
790;DHT22;378;48.844;9.156;2023-05-07T15:13:48;15.80;99.90
790;DHT22;378;48.844;9.156;2023-05-07T15:16:15;15.90;99.90
790;DHT22;378;48.844;9.156;2023-05-07T15:18:42;15.90;99.90
790;DHT22;378;48.844;9.156;2023-05-07T15:21:09;15.90;99.90
790;DHT22;378;48.844;9.156;2023-05-07T15:23:36;16.00;99.90
790;DHT22;378;48.844;9.156;2023-05-07T15:26:04;16.10;99.90
790;DHT22;378;48.844;9.156;2023-05-07T15:28:32;16.10;99.90
790;DHT22;378;48.844;9.156;2023-05-07T15:30:59;16.20;99.90
790;DHT22;378;48.844;9.156;2023-05-07T15:33:25;16.40;99.90
790;DHT22;378;48.844;9.156;2023-05-07T15:35:52;16.50;99.90
790;DHT22;378;48.844;9.156;2023-05-07T15:38:19;16.60;99.90
790;DHT22;378;48.844;9.156;2023-05-07T15:40:46;16.70;99.90
790;DHT22;378;48.844;9.156;2023-05-07T15:43:13;16.70;99.90
790;DHT22;378;48.844;9.156;2023-05-07T15:45:42;16.80;99.90
790;DHT22;378;48.844;9.156;2023-05-07T15:48:09;16.70;99.90
790;DHT22;378;48.844;9.156;2023-05-07T15:50:37;16.80;99.90
790;DHT22;378;48.844;9.156;2023-05-07T15:53:04;16.60;99.90
790;DHT22;378;48.844;9.156;2023-05-07T15:55:33;16.60;99.90
790;DHT22;378;48.844;9.156;2023-05-07T15:58:43;16.50;99.90
790;DHT22;378;48.844;9.156;2023-05-07T16:11:58;16.60;99.90
790;DHT22;378;48.844;9.156;2023-05-07T16:14:46;16.60;99.90
790;DHT22;378;48.844;9.156;2023-05-07T16:17:38;16.60;99.90
790;DHT22;378;48.844;9.156;2023-05-07T16:20:33;16.70;99.90
790;DHT22;378;48.844;9.156;2023-05-07T16:23:25;16.80;99.90
790;DHT22;378;48.844;9.156;2023-05-07T16:29:24;16.90;99.90
790;DHT22;378;48.844;9.156;2023-05-07T16:32:35;17.00;99.90
790;DHT22;378;48.844;9.156;2023-05-07T16:35:28;17.00;99.90
790;DHT22;378;48.844;9.156;2023-05-07T16:38:35;16.90;99.90
790;DHT22;378;48.844;9.156;2023-05-07T16:41:18;17.00;99.90
790;DHT22;378;48.844;9.156;2023-05-07T16:47:27;16.80;99.90
790;DHT22;378;48.844;9.156;2023-05-07T16:50:12;16.70;99.90
790;DHT22;378;48.844;9.156;2023-05-07T16:52:54;16.60;99.90
790;DHT22;378;48.844;9.156;2023-05-07T16:58:05;16.50;99.90
790;DHT22;378;48.844;9.156;2023-05-07T17:00:32;16.50;99.90
790;DHT22;378;48.844;9.156;2023-05-07T17:03:01;16.50;99.90
790;DHT22;378;48.844;9.156;2023-05-07T17:05:28;16.50;99.90
790;DHT22;378;48.844;9.156;2023-05-07T17:07:55;16.60;99.90